sensor_id;sensor_type;location;lat;lon;timestamp;pressure;altitude;pressure_sealevel;temperature;humidity
25350;BME280;13302;48.796;11.978;2023-05-03T00:01:58;97542.19;;;11.43;40.48
25350;BME280;13302;48.796;11.978;2023-05-03T00:04:51;97543.31;;;11.42;40.67
25350;BME280;13302;48.796;11.978;2023-05-03T00:07:41;97542.06;;;11.40;40.44
25350;BME280;13302;48.796;11.978;2023-05-03T00:10:29;97541.56;;;11.38;40.58
25350;BME280;13302;48.796;11.978;2023-05-03T00:13:16;97532.81;;;11.36;40.49
25350;BME280;13302;48.796;11.978;2023-05-03T00:16:04;97536.34;;;11.36;40.35
25350;BME280;13302;48.796;11.978;2023-05-03T00:18:51;97540.63;;;11.34;40.16
25350;BME280;13302;48.796;11.978;2023-05-03T00:21:38;97542.13;;;11.31;39.72
25350;BME280;13302;48.796;11.978;2023-05-03T00:24:25;97540.00;;;11.28;39.93
25350;BME280;13302;48.796;11.978;2023-05-03T00:27:13;97528.50;;;11.26;39.88
25350;BME280;13302;48.796;11.978;2023-05-03T00:30:00;97532.75;;;11.24;39.66
25350;BME280;13302;48.796;11.978;2023-05-03T00:32:47;97529.50;;;11.22;39.84
25350;BME280;13302;48.796;11.978;2023-05-03T00:35:35;97531.34;;;11.18;39.69
25350;BME280;13302;48.796;11.978;2023-05-03T00:38:22;97527.94;;;11.12;39.75
25350;BME280;13302;48.796;11.978;2023-05-03T00:41:09;97531.41;;;11.09;39.89
25350;BME280;13302;48.796;11.978;2023-05-03T00:43:57;97532.09;;;11.06;39.83
25350;BME280;13302;48.796;11.978;2023-05-03T00:46:44;97530.78;;;11.03;39.88
25350;BME280;13302;48.796;11.978;2023-05-03T00:49:32;97539.44;;;11.02;39.74
25350;BME280;13302;48.796;11.978;2023-05-03T00:52:19;97534.59;;;10.99;39.55
25350;BME280;13302;48.796;11.978;2023-05-03T00:55:07;97531.34;;;10.97;39.77
25350;BME280;13302;48.796;11.978;2023-05-03T00:57:55;97529.25;;;10.94;39.77
25350;BME280;13302;48.796;11.978;2023-05-03T01:00:43;97535.09;;;10.92;39.64
25350;BME280;13302;48.796;11.978;2023-05-03T01:03:30;97531.06;;;10.90;39.37
25350;BME280;13302;48.796;11.978;2023-05-03T01:12:52;97534.84;;;10.85;39.89
25350;BME280;13302;48.796;11.978;2023-05-03T01:18:52;97541.50;;;10.84;39.90
25350;BME280;13302;48.796;11.978;2023-05-03T01:21:41;97537.13;;;10.83;39.76
25350;BME280;13302;48.796;11.978;2023-05-03T01:24:34;97538.63;;;10.81;39.85
25350;BME280;13302;48.796;11.978;2023-05-03T01:27:24;97531.47;;;10.80;39.85
25350;BME280;13302;48.796;11.978;2023-05-03T01:30:12;97534.56;;;10.78;39.73
25350;BME280;13302;48.796;11.978;2023-05-03T01:33:52;97531.66;;;10.75;39.80
25350;BME280;13302;48.796;11.978;2023-05-03T01:36:30;97530.69;;;10.71;39.82
25350;BME280;13302;48.796;11.978;2023-05-03T01:39:26;97540.16;;;10.70;39.62
25350;BME280;13302;48.796;11.978;2023-05-03T01:42:15;97536.22;;;10.71;40.02
25350;BME280;13302;48.796;11.978;2023-05-03T01:45:03;97533.00;;;10.69;39.77
25350;BME280;13302;48.796;11.978;2023-05-03T01:47:50;97526.66;;;10.68;40.00
25350;BME280;13302;48.796;11.978;2023-05-03T01:50:37;97523.91;;;10.68;40.22
25350;BME280;13302;48.796;11.978;2023-05-03T01:53:25;97533.81;;;10.69;40.26
25350;BME280;13302;48.796;11.978;2023-05-03T01:56:12;97525.16;;;10.71;40.21
25350;BME280;13302;48.796;11.978;2023-05-03T01:58:59;97532.31;;;10.72;40.40
25350;BME280;13302;48.796;11.978;2023-05-03T02:01:46;97523.72;;;10.73;40.27
25350;BME280;13302;48.796;11.978;2023-05-03T02:04:33;97525.34;;;10.74;40.26
25350;BME280;13302;48.796;11.978;2023-05-03T02:07:20;97519.44;;;10.76;40.13
25350;BME280;13302;48.796;11.978;2023-05-03T02:10:07;97529.69;;;10.75;39.93
25350;BME280;13302;48.796;11.978;2023-05-03T02:12:57;97523.84;;;10.77;40.02
25350;BME280;13302;48.796;11.978;2023-05-03T02:15:45;97521.41;;;10.75;39.86
25350;BME280;13302;48.796;11.978;2023-05-03T02:18:32;97535.22;;;10.75;40.11
25350;BME280;13302;48.796;11.978;2023-05-03T02:21:19;97535.22;;;10.75;40.12
25350;BME280;13302;48.796;11.978;2023-05-03T02:24:06;97533.63;;;10.74;40.02
25350;BME280;13302;48.796;11.978;2023-05-03T02:26:54;97534.78;;;10.73;39.54
25350;BME280;13302;48.796;11.978;2023-05-03T02:29:41;97536.22;;;10.71;39.88
25350;BME280;13302;48.796;11.978;2023-05-03T02:32:29;97537.41;;;10.70;39.77
25350;BME280;13302;48.796;11.978;2023-05-03T02:35:16;97536.09;;;10.67;39.58
25350;BME280;13302;48.796;11.978;2023-05-03T02:38:04;97531.25;;;10.64;39.35
25350;BME280;13302;48.796;11.978;2023-05-03T02:40:51;97535.97;;;10.64;39.71
25350;BME280;13302;48.796;11.978;2023-05-03T02:43:38;97544.59;;;10.62;39.21
25350;BME280;13302;48.796;11.978;2023-05-03T02:46:25;97539.72;;;10.59;39.09
25350;BME280;13302;48.796;11.978;2023-05-03T02:49:12;97539.25;;;10.57;39.27
25350;BME280;13302;48.796;11.978;2023-05-03T02:51:59;97545.91;;;10.56;39.41
25350;BME280;13302;48.796;11.978;2023-05-03T02:54:46;97535.53;;;10.53;39.12
25350;BME280;13302;48.796;11.978;2023-05-03T02:57:35;97530.31;;;10.51;39.27
25350;BME280;13302;48.796;11.978;2023-05-03T03:00:24;97532.94;;;10.48;39.14
25350;BME280;13302;48.796;11.978;2023-05-03T03:03:11;97525.78;;;10.47;39.21
25350;BME280;13302;48.796;11.978;2023-05-03T03:05:58;97531.66;;;10.45;39.35
25350;BME280;13302;48.796;11.978;2023-05-03T03:08:46;97522.06;;;10.43;39.21
25350;BME280;13302;48.796;11.978;2023-05-03T03:11:33;97528.72;;;10.42;39.16
25350;BME280;13302;48.796;11.978;2023-05-03T03:14:21;97536.56;;;10.40;39.29
25350;BME280;13302;48.796;11.978;2023-05-03T03:17:08;97531.34;;;10.38;39.08
25350;BME280;13302;48.796;11.978;2023-05-03T03:19:55;97528.94;;;10.37;39.25
25350;BME280;13302;48.796;11.978;2023-05-03T03:22:44;97531.72;;;10.37;39.37
25350;BME280;13302;48.796;11.978;2023-05-03T03:25:32;97532.84;;;10.36;39.16
25350;BME280;13302;48.796;11.978;2023-05-03T03:28:20;97532.34;;;10.34;39.21
25350;BME280;13302;48.796;11.978;2023-05-03T03:31:07;97529.94;;;10.32;39.16
25350;BME280;13302;48.796;11.978;2023-05-03T03:33:55;97540.19;;;10.32;39.40
25350;BME280;13302;48.796;11.978;2023-05-03T03:36:46;97538.56;;;10.31;39.06
25350;BME280;13302;48.796;11.978;2023-05-03T03:39:34;97539.22;;;10.28;39.23
25350;BME280;13302;48.796;11.978;2023-05-03T03:42:21;97542.00;;;10.28;39.43
25350;BME280;13302;48.796;11.978;2023-05-03T03:45:11;97537.94;;;10.25;39.36
25350;BME280;13302;48.796;11.978;2023-05-03T03:47:58;97543.81;;;10.24;39.12
25350;BME280;13302;48.796;11.978;2023-05-03T03:50:46;97544.13;;;10.22;39.29
25350;BME280;13302;48.796;11.978;2023-05-03T03:53:34;97548.06;;;10.21;39.27
25350;BME280;13302;48.796;11.978;2023-05-03T03:56:22;97544.47;;;10.21;39.15
25350;BME280;13302;48.796;11.978;2023-05-03T03:59:10;97552.28;;;10.19;38.94
25350;BME280;13302;48.796;11.978;2023-05-03T04:01:57;97545.78;;;10.14;39.16
25350;BME280;13302;48.796;11.978;2023-05-03T04:04:45;97548.41;;;10.11;39.25
25350;BME280;13302;48.796;11.978;2023-05-03T04:07:36;97556.19;;;10.09;39.28
25350;BME280;13302;48.796;11.978;2023-05-03T04:10:23;97560.44;;;10.06;39.27
25350;BME280;13302;48.796;11.978;2023-05-03T04:13:10;97563.06;;;10.03;39.52
25350;BME280;13302;48.796;11.978;2023-05-03T04:15:57;97568.91;;;10.01;39.65
25350;BME280;13302;48.796;11.978;2023-05-03T04:18:45;97559.34;;;9.99;39.73
25350;BME280;13302;48.796;11.978;2023-05-03T04:21:33;97567.63;;;9.99;39.41
25350;BME280;13302;48.796;11.978;2023-05-03T04:24:20;97572.66;;;9.97;39.44
25350;BME280;13302;48.796;11.978;2023-05-03T04:27:08;97566.66;;;9.95;39.62
25350;BME280;13302;48.796;11.978;2023-05-03T04:29:57;97575.75;;;9.95;39.89
25350;BME280;13302;48.796;11.978;2023-05-03T04:32:45;97575.41;;;9.97;39.78
25350;BME280;13302;48.796;11.978;2023-05-03T04:35:34;97580.63;;;9.98;39.92
25350;BME280;13302;48.796;11.978;2023-05-03T04:38:27;97578.69;;;9.99;39.80
25350;BME280;13302;48.796;11.978;2023-05-03T04:41:16;97587.44;;;10.01;39.83
25350;BME280;13302;48.796;11.978;2023-05-03T04:44:05;97584.66;;;10.01;40.21
25350;BME280;13302;48.796;11.978;2023-05-03T04:46:53;97588.38;;;10.05;40.01
25350;BME280;13302;48.796;11.978;2023-05-03T04:49:41;97591.97;;;10.05;40.14
25350;BME280;13302;48.796;11.978;2023-05-03T04:52:28;97592.47;;;10.07;40.19
25350;BME280;13302;48.796;11.978;2023-05-03T04:55:15;97584.31;;;10.11;40.49
25350;BME280;13302;48.796;11.978;2023-05-03T04:58:04;97593.06;;;10.13;40.33
25350;BME280;13302;48.796;11.978;2023-05-03T05:00:52;97594.06;;;10.17;40.75
25350;BME280;13302;48.796;11.978;2023-05-03T05:03:48;97593.84;;;10.22;40.57
25350;BME280;13302;48.796;11.978;2023-05-03T05:06:40;97600.34;;;10.26;40.67
25350;BME280;13302;48.796;11.978;2023-05-03T05:09:30;97597.41;;;10.31;40.87
25350;BME280;13302;48.796;11.978;2023-05-03T05:12:20;97597.09;;;10.33;40.99
25350;BME280;13302;48.796;11.978;2023-05-03T05:15:07;97603.06;;;10.35;41.25
25350;BME280;13302;48.796;11.978;2023-05-03T05:17:55;97601.28;;;10.39;41.27
25350;BME280;13302;48.796;11.978;2023-05-03T05:20:43;97599.47;;;10.43;41.14
25350;BME280;13302;48.796;11.978;2023-05-03T05:23:30;97613.44;;;10.46;41.25
25350;BME280;13302;48.796;11.978;2023-05-03T05:26:17;97612.78;;;10.49;41.58
25350;BME280;13302;48.796;11.978;2023-05-03T05:29:04;97625.25;;;10.55;41.50
25350;BME280;13302;48.796;11.978;2023-05-03T05:31:52;97619.59;;;10.61;41.49
25350;BME280;13302;48.796;11.978;2023-05-03T05:34:39;97615.81;;;10.65;41.53
25350;BME280;13302;48.796;11.978;2023-05-03T05:37:35;97625.53;;;10.71;41.67
25350;BME280;13302;48.796;11.978;2023-05-03T05:40:24;97626.16;;;10.77;41.61
25350;BME280;13302;48.796;11.978;2023-05-03T05:43:15;97626.44;;;10.84;41.73
25350;BME280;13302;48.796;11.978;2023-05-03T05:46:04;97630.66;;;10.90;41.69
25350;BME280;13302;48.796;11.978;2023-05-03T05:48:52;97626.53;;;10.96;41.51
25350;BME280;13302;48.796;11.978;2023-05-03T05:51:39;97622.75;;;11.00;41.83
25350;BME280;13302;48.796;11.978;2023-05-03T05:54:27;97626.63;;;11.08;41.83
25350;BME280;13302;48.796;11.978;2023-05-03T05:57:16;97628.06;;;11.14;41.82
25350;BME280;13302;48.796;11.978;2023-05-03T06:00:04;97635.34;;;11.19;41.79
25350;BME280;13302;48.796;11.978;2023-05-03T06:03:00;97634.47;;;11.27;41.95
25350;BME280;13302;48.796;11.978;2023-05-03T06:05:47;97638.31;;;11.34;41.99
25350;BME280;13302;48.796;11.978;2023-05-03T06:08:35;97640.09;;;11.39;41.82
25350;BME280;13302;48.796;11.978;2023-05-03T06:11:22;97636.44;;;11.47;41.76
25350;BME280;13302;48.796;11.978;2023-05-03T06:14:09;97642.09;;;11.50;41.80
25350;BME280;13302;48.796;11.978;2023-05-03T06:16:59;97642.63;;;11.53;42.05
25350;BME280;13302;48.796;11.978;2023-05-03T06:19:46;97648.28;;;11.56;41.86
25350;BME280;13302;48.796;11.978;2023-05-03T06:22:35;97638.03;;;11.57;42.11
25350;BME280;13302;48.796;11.978;2023-05-03T06:25:22;97652.00;;;11.60;42.17
25350;BME280;13302;48.796;11.978;2023-05-03T06:28:10;97649.38;;;11.64;41.99
25350;BME280;13302;48.796;11.978;2023-05-03T06:30:58;97641.50;;;11.66;42.20
25350;BME280;13302;48.796;11.978;2023-05-03T06:33:46;97646.03;;;11.70;42.45
25350;BME280;13302;48.796;11.978;2023-05-03T06:36:34;97648.94;;;11.74;42.28
25350;BME280;13302;48.796;11.978;2023-05-03T06:39:22;97645.63;;;11.80;42.19
25350;BME280;13302;48.796;11.978;2023-05-03T06:42:10;97656.63;;;11.89;42.03
25350;BME280;13302;48.796;11.978;2023-05-03T06:44:59;97648.91;;;11.94;41.80
25350;BME280;13302;48.796;11.978;2023-05-03T06:47:46;97654.34;;;12.03;41.89
25350;BME280;13302;48.796;11.978;2023-05-03T06:50:33;97661.66;;;12.08;41.73
25350;BME280;13302;48.796;11.978;2023-05-03T06:53:20;97655.91;;;12.13;41.48
25350;BME280;13302;48.796;11.978;2023-05-03T06:56:07;97648.97;;;12.19;41.60
25350;BME280;13302;48.796;11.978;2023-05-03T06:58:54;97648.75;;;12.24;41.33
25350;BME280;13302;48.796;11.978;2023-05-03T07:01:42;97648.56;;;12.29;41.33
25350;BME280;13302;48.796;11.978;2023-05-03T07:04:29;97654.69;;;12.34;41.73
25350;BME280;13302;48.796;11.978;2023-05-03T07:07:16;97655.16;;;12.36;41.56
25350;BME280;13302;48.796;11.978;2023-05-03T07:10:04;97656.22;;;12.44;41.75
25350;BME280;13302;48.796;11.978;2023-05-03T07:12:51;97649.31;;;12.50;41.81
25350;BME280;13302;48.796;11.978;2023-05-03T07:15:38;97648.41;;;12.58;41.27
25350;BME280;13302;48.796;11.978;2023-05-03T07:18:25;97650.59;;;12.65;41.57
25350;BME280;13302;48.796;11.978;2023-05-03T07:21:13;97641.72;;;12.71;41.71
25350;BME280;13302;48.796;11.978;2023-05-03T07:24:00;97650.25;;;12.78;41.55
25350;BME280;13302;48.796;11.978;2023-05-03T07:26:47;97644.81;;;12.82;41.67
25350;BME280;13302;48.796;11.978;2023-05-03T07:29:35;97644.22;;;12.88;41.68
25350;BME280;13302;48.796;11.978;2023-05-03T07:32:22;97640.41;;;12.93;41.61
25350;BME280;13302;48.796;11.978;2023-05-03T07:35:09;97640.31;;;13.02;41.46
25350;BME280;13302;48.796;11.978;2023-05-03T07:37:56;97638.56;;;13.09;41.44
25350;BME280;13302;48.796;11.978;2023-05-03T07:40:43;97639.94;;;13.15;41.58
25350;BME280;13302;48.796;11.978;2023-05-03T07:43:31;97635.41;;;13.23;41.26
25350;BME280;13302;48.796;11.978;2023-05-03T07:46:18;97636.25;;;13.36;41.50
25350;BME280;13302;48.796;11.978;2023-05-03T07:49:05;97636.91;;;13.45;41.49
25350;BME280;13302;48.796;11.978;2023-05-03T07:51:52;97631.66;;;13.55;41.21
25350;BME280;13302;48.796;11.978;2023-05-03T07:54:39;97637.44;;;13.62;41.08
25350;BME280;13302;48.796;11.978;2023-05-03T07:57:28;97637.66;;;13.69;41.16
25350;BME280;13302;48.796;11.978;2023-05-03T08:00:16;97635.78;;;13.73;40.58
25350;BME280;13302;48.796;11.978;2023-05-03T08:03:03;97632.75;;;13.78;40.50
25350;BME280;13302;48.796;11.978;2023-05-03T08:05:52;97623.34;;;13.83;40.76
25350;BME280;13302;48.796;11.978;2023-05-03T08:08:39;97622.28;;;13.88;40.21
25350;BME280;13302;48.796;11.978;2023-05-03T08:11:28;97626.34;;;13.90;40.22
25350;BME280;13302;48.796;11.978;2023-05-03T08:14:15;97623.28;;;13.95;40.24
25350;BME280;13302;48.796;11.978;2023-05-03T08:17:02;97625.72;;;13.97;40.30
25350;BME280;13302;48.796;11.978;2023-05-03T08:19:54;97626.97;;;13.99;40.59
25350;BME280;13302;48.796;11.978;2023-05-03T08:22:42;97623.13;;;14.04;40.07
25350;BME280;13302;48.796;11.978;2023-05-03T08:25:31;97633.09;;;14.05;40.46
25350;BME280;13302;48.796;11.978;2023-05-03T08:28:18;97629.25;;;14.09;40.34
25350;BME280;13302;48.796;11.978;2023-05-03T08:31:05;97628.91;;;14.11;40.27
25350;BME280;13302;48.796;11.978;2023-05-03T08:33:53;97625.09;;;14.15;40.10
25350;BME280;13302;48.796;11.978;2023-05-03T08:36:40;97635.03;;;14.16;40.05
25350;BME280;13302;48.796;11.978;2023-05-03T08:39:27;97636.31;;;14.19;40.05
25350;BME280;13302;48.796;11.978;2023-05-03T08:42:16;97632.81;;;14.22;39.96
25350;BME280;13302;48.796;11.978;2023-05-03T08:45:05;97628.06;;;14.22;39.96
25350;BME280;13302;48.796;11.978;2023-05-03T08:47:54;97637.66;;;14.25;39.69
25350;BME280;13302;48.796;11.978;2023-05-03T08:50:41;97630.94;;;14.26;40.02
25350;BME280;13302;48.796;11.978;2023-05-03T08:53:28;97633.38;;;14.28;39.83
25350;BME280;13302;48.796;11.978;2023-05-03T08:56:24;97636.16;;;14.28;39.67
25350;BME280;13302;48.796;11.978;2023-05-03T08:59:13;97640.53;;;14.29;39.58
25350;BME280;13302;48.796;11.978;2023-05-03T09:02:03;97641.34;;;14.29;40.02
25350;BME280;13302;48.796;11.978;2023-05-03T09:04:51;97640.53;;;14.29;39.76
25350;BME280;13302;48.796;11.978;2023-05-03T09:07:38;97646.09;;;14.29;39.75
25350;BME280;13302;48.796;11.978;2023-05-03T09:10:25;97634.25;;;14.32;39.76
25350;BME280;13302;48.796;11.978;2023-05-03T09:13:12;97645.81;;;14.34;39.81
25350;BME280;13302;48.796;11.978;2023-05-03T09:15:59;97643.50;;;14.36;39.61
25350;BME280;13302;48.796;11.978;2023-05-03T09:18:58;97645.09;;;14.37;39.58
25350;BME280;13302;48.796;11.978;2023-05-03T09:21:46;97646.38;;;14.39;39.57
25350;BME280;13302;48.796;11.978;2023-05-03T09:24:33;97644.84;;;14.42;39.38
25350;BME280;13302;48.796;11.978;2023-05-03T09:27:22;97647.63;;;14.42;39.57
25350;BME280;13302;48.796;11.978;2023-05-03T09:30:17;97642.44;;;14.40;39.67
25350;BME280;13302;48.796;11.978;2023-05-03T09:33:05;97649.97;;;14.40;39.21
25350;BME280;13302;48.796;11.978;2023-05-03T09:36:00;97641.16;;;14.38;39.56
25350;BME280;13302;48.796;11.978;2023-05-03T09:38:49;97642.78;;;14.39;39.24
25350;BME280;13302;48.796;11.978;2023-05-03T09:41:36;97643.13;;;14.37;39.16
25350;BME280;13302;48.796;11.978;2023-05-03T09:44:46;97647.09;;;14.36;39.41
25350;BME280;13302;48.796;11.978;2023-05-03T09:47:48;97641.88;;;14.35;39.68
25350;BME280;13302;48.796;11.978;2023-05-03T09:50:37;97632.25;;;14.32;39.30
25350;BME280;13302;48.796;11.978;2023-05-03T09:53:25;97635.50;;;14.34;39.52
25350;BME280;13302;48.796;11.978;2023-05-03T09:56:13;97638.28;;;14.34;39.47
25350;BME280;13302;48.796;11.978;2023-05-03T09:59:01;97629.13;;;14.34;40.02
25350;BME280;13302;48.796;11.978;2023-05-03T10:01:52;97639.00;;;14.31;39.73
25350;BME280;13302;48.796;11.978;2023-05-03T10:04:48;97637.56;;;14.37;39.50
25350;BME280;13302;48.796;11.978;2023-05-03T10:07:39;97634.53;;;14.42;39.41
25350;BME280;13302;48.796;11.978;2023-05-03T10:10:31;97627.19;;;14.50;39.70
25350;BME280;13302;48.796;11.978;2023-05-03T10:13:20;97618.31;;;14.60;39.80
25350;BME280;13302;48.796;11.978;2023-05-03T10:16:12;97617.31;;;14.68;39.82
25350;BME280;13302;48.796;11.978;2023-05-03T10:19:25;97617.94;;;14.77;39.71
25350;BME280;13302;48.796;11.978;2023-05-03T10:22:13;97615.41;;;14.88;40.02
25350;BME280;13302;48.796;11.978;2023-05-03T10:27:50;97615.06;;;15.05;39.89
25350;BME280;13302;48.796;11.978;2023-05-03T10:30:39;97607.31;;;15.14;39.75
25350;BME280;13302;48.796;11.978;2023-05-03T10:33:31;97607.00;;;15.19;39.75
25350;BME280;13302;48.796;11.978;2023-05-03T10:36:21;97602.41;;;15.27;39.46
25350;BME280;13302;48.796;11.978;2023-05-03T10:39:13;97597.81;;;15.34;39.34
25350;BME280;13302;48.796;11.978;2023-05-03T10:42:04;97606.31;;;15.41;39.12
25350;BME280;13302;48.796;11.978;2023-05-03T10:44:54;97604.50;;;15.49;38.64
25350;BME280;13302;48.796;11.978;2023-05-03T10:47:41;97597.47;;;15.55;38.36
25350;BME280;13302;48.796;11.978;2023-05-03T10:50:28;97596.00;;;15.61;38.11
25350;BME280;13302;48.796;11.978;2023-05-03T10:56:21;97595.81;;;15.70;38.31
25350;BME280;13302;48.796;11.978;2023-05-03T10:59:08;97595.94;;;15.77;38.04
25350;BME280;13302;48.796;11.978;2023-05-03T11:01:55;97592.06;;;15.81;38.09
25350;BME280;13302;48.796;11.978;2023-05-03T11:04:44;97592.56;;;15.87;38.38
25350;BME280;13302;48.796;11.978;2023-05-03T11:07:34;97587.50;;;15.92;37.91
25350;BME280;13302;48.796;11.978;2023-05-03T11:10:21;97587.00;;;15.87;37.54
25350;BME280;13302;48.796;11.978;2023-05-03T11:13:08;97587.94;;;15.94;37.38
25350;BME280;13302;48.796;11.978;2023-05-03T11:15:55;97589.91;;;15.94;37.39
25350;BME280;13302;48.796;11.978;2023-05-03T11:18:42;97592.78;;;15.97;37.12
25350;BME280;13302;48.796;11.978;2023-05-03T11:21:29;97591.97;;;15.97;36.83
25350;BME280;13302;48.796;11.978;2023-05-03T11:24:18;97581.56;;;15.94;36.59
25350;BME280;13302;48.796;11.978;2023-05-03T11:27:05;97581.50;;;15.90;36.27
25350;BME280;13302;48.796;11.978;2023-05-03T11:29:54;97573.81;;;15.84;36.39
25350;BME280;13302;48.796;11.978;2023-05-03T11:32:44;97580.56;;;15.83;36.70
25350;BME280;13302;48.796;11.978;2023-05-03T11:35:31;97574.59;;;15.84;36.51
25350;BME280;13302;48.796;11.978;2023-05-03T11:38:18;97574.44;;;15.77;36.27
25350;BME280;13302;48.796;11.978;2023-05-03T11:41:14;97574.84;;;15.76;35.99
25350;BME280;13302;48.796;11.978;2023-05-03T11:44:05;97563.69;;;15.76;36.03
25350;BME280;13302;48.796;11.978;2023-05-03T11:47:04;97561.78;;;15.80;36.05
25350;BME280;13302;48.796;11.978;2023-05-03T11:49:55;97565.44;;;15.84;36.39
25350;BME280;13302;48.796;11.978;2023-05-03T11:52:43;97559.19;;;15.90;36.37
25350;BME280;13302;48.796;11.978;2023-05-03T11:55:30;97564.00;;;15.93;36.42
25350;BME280;13302;48.796;11.978;2023-05-03T12:01:06;97557.84;;;16.03;36.49
25350;BME280;13302;48.796;11.978;2023-05-03T12:03:58;97559.88;;;16.06;36.31
25350;BME280;13302;48.796;11.978;2023-05-03T12:06:47;97555.19;;;16.11;36.34
25350;BME280;13302;48.796;11.978;2023-05-03T12:09:39;97562.44;;;16.15;36.15
25350;BME280;13302;48.796;11.978;2023-05-03T12:12:30;97548.13;;;16.17;36.37
25350;BME280;13302;48.796;11.978;2023-05-03T12:15:36;97559.75;;;16.22;36.49
25350;BME280;13302;48.796;11.978;2023-05-03T12:18:23;97559.81;;;16.26;36.17
25350;BME280;13302;48.796;11.978;2023-05-03T12:21:11;97563.13;;;16.31;36.31
25350;BME280;13302;48.796;11.978;2023-05-03T12:24:03;97551.22;;;16.34;35.92
25350;BME280;13302;48.796;11.978;2023-05-03T12:26:52;97552.88;;;16.39;35.94
25350;BME280;13302;48.796;11.978;2023-05-03T12:29:39;97549.34;;;16.42;35.70
25350;BME280;13302;48.796;11.978;2023-05-03T12:32:28;97542.97;;;16.41;35.40
25350;BME280;13302;48.796;11.978;2023-05-03T12:35:16;97541.72;;;16.39;35.40
25350;BME280;13302;48.796;11.978;2023-05-03T12:38:05;97544.47;;;16.35;35.08
25350;BME280;13302;48.796;11.978;2023-05-03T12:40:56;97540.50;;;16.36;34.80
25350;BME280;13302;48.796;11.978;2023-05-03T12:43:43;97540.91;;;16.38;34.67
25350;BME280;13302;48.796;11.978;2023-05-03T12:46:30;97528.16;;;16.37;34.00
25350;BME280;13302;48.796;11.978;2023-05-03T12:49:21;97524.94;;;16.35;34.18
25350;BME280;13302;48.796;11.978;2023-05-03T12:52:09;97534.91;;;16.36;34.37
25350;BME280;13302;48.796;11.978;2023-05-03T12:55:16;97525.38;;;16.37;34.48
25350;BME280;13302;48.796;11.978;2023-05-03T12:58:05;97529.75;;;16.38;34.74
25350;BME280;13302;48.796;11.978;2023-05-03T13:01:12;97519.78;;;16.37;34.68
25350;BME280;13302;48.796;11.978;2023-05-03T13:04:02;97526.25;;;16.41;34.28
25350;BME280;13302;48.796;11.978;2023-05-03T13:06:53;97523.53;;;16.45;34.23
25350;BME280;13302;48.796;11.978;2023-05-03T13:09:45;97519.13;;;16.44;33.94
25350;BME280;13302;48.796;11.978;2023-05-03T13:12:52;97513.19;;;16.45;34.11
25350;BME280;13302;48.796;11.978;2023-05-03T13:15:39;97513.28;;;16.52;33.87
25350;BME280;13302;48.796;11.978;2023-05-03T13:18:27;97509.75;;;16.56;34.04
25350;BME280;13302;48.796;11.978;2023-05-03T13:21:14;97514.19;;;16.60;34.08
25350;BME280;13302;48.796;11.978;2023-05-03T13:24:03;97509.84;;;16.63;33.75
25350;BME280;13302;48.796;11.978;2023-05-03T13:26:50;97503.13;;;16.67;33.47
25350;BME280;13302;48.796;11.978;2023-05-03T13:29:37;97495.63;;;16.71;33.88
25350;BME280;13302;48.796;11.978;2023-05-03T13:32:24;97499.66;;;16.74;33.62
25350;BME280;13302;48.796;11.978;2023-05-03T13:35:12;97498.91;;;16.77;33.18
25350;BME280;13302;48.796;11.978;2023-05-03T13:37:59;97487.38;;;16.78;33.44
25350;BME280;13302;48.796;11.978;2023-05-03T13:40:46;97484.88;;;16.73;33.24
25350;BME280;13302;48.796;11.978;2023-05-03T13:43:33;97486.88;;;16.73;32.84
25350;BME280;13302;48.796;11.978;2023-05-03T13:46:20;97489.31;;;16.74;33.07
25350;BME280;13302;48.796;11.978;2023-05-03T13:49:09;97486.50;;;16.74;33.13
25350;BME280;13302;48.796;11.978;2023-05-03T13:51:57;97482.16;;;16.77;33.17
25350;BME280;13302;48.796;11.978;2023-05-03T13:54:44;97486.97;;;16.80;33.26
25350;BME280;13302;48.796;11.978;2023-05-03T13:57:31;97488.59;;;16.81;32.93
25350;BME280;13302;48.796;11.978;2023-05-03T14:00:18;97476.59;;;16.80;33.10
25350;BME280;13302;48.796;11.978;2023-05-03T14:03:06;97475.00;;;16.79;32.60
25350;BME280;13302;48.796;11.978;2023-05-03T14:05:54;97477.78;;;16.79;32.74
25350;BME280;13302;48.796;11.978;2023-05-03T14:08:41;97476.56;;;16.77;32.73
25350;BME280;13302;48.796;11.978;2023-05-03T14:11:29;97469.75;;;16.74;32.65
25350;BME280;13302;48.796;11.978;2023-05-03T14:14:16;97465.34;;;16.73;32.91
25350;BME280;13302;48.796;11.978;2023-05-03T14:17:03;97465.34;;;16.73;33.19
25350;BME280;13302;48.796;11.978;2023-05-03T14:19:50;97462.59;;;16.77;32.95
25350;BME280;13302;48.796;11.978;2023-05-03T14:22:38;97460.63;;;16.77;32.84
25350;BME280;13302;48.796;11.978;2023-05-03T14:25:25;97447.06;;;16.79;32.39
25350;BME280;13302;48.796;11.978;2023-05-03T14:28:12;97442.72;;;16.82;32.64
25350;BME280;13302;48.796;11.978;2023-05-03T14:31:00;97451.16;;;16.85;32.43
25350;BME280;13302;48.796;11.978;2023-05-03T14:33:47;97445.63;;;16.89;32.42
25350;BME280;13302;48.796;11.978;2023-05-03T14:36:34;97448.44;;;16.92;32.76
25350;BME280;13302;48.796;11.978;2023-05-03T14:39:24;97438.53;;;16.95;32.42
25350;BME280;13302;48.796;11.978;2023-05-03T14:42:11;97444.47;;;16.93;32.28
25350;BME280;13302;48.796;11.978;2023-05-03T14:44:58;97438.09;;;16.93;31.83
25350;BME280;13302;48.796;11.978;2023-05-03T14:47:45;97448.09;;;16.94;31.85
25350;BME280;13302;48.796;11.978;2023-05-03T14:50:32;97444.47;;;16.93;31.75
25350;BME280;13302;48.796;11.978;2023-05-03T14:53:19;97445.66;;;16.92;31.40
25350;BME280;13302;48.796;11.978;2023-05-03T14:56:08;97445.69;;;16.96;31.32
25350;BME280;13302;48.796;11.978;2023-05-03T14:58:55;97429.75;;;16.96;31.61
25350;BME280;13302;48.796;11.978;2023-05-03T15:01:42;97440.13;;;16.96;31.60